Yankeetown, Indiana
Current Conditions -  °F | °C
As of 9:54 PM on Saturday 25 Oct 2014 (Local Time) from KEVV Reporting Station
Clear Clear  
Wind Chill: 57°   Ceiling: Unl
Heat Index: 57°   Visibility: 10mi
Dew Point: 53°   Wind: 5mph
Humidity: 87%   Direction: 250°WSW
Pressure: 30"   Gusts: NA
Location:  37.9629°N, 87.3632°W
Report Text: KEVV 260254Z 25004KT 10SM CLR 14/12 A3000 RMK AO2 SLP157 T01390117 51002
Loading
Personal Weather Stations






























Interactive Weather Map
Tropical Storm Tracking
New forecast layout! Learn more

10-Day Weather Forecast

Advertisements
Track Severe Weather on mobile